Aurora, MO (65605)

12:44 PM CST on February 11, 2016 (GMT -0600)
North Aurora, MO | | Change Station
CLOSE
Current Station
Personal Weather Station
Location: Aurora, MO
Elevation: 1391 ft
Nearby Weather Stations

Elev 1391 ft 36.98 °N, 93.72 °W | Updated 3 seconds ago

Clear
Clear
50.5 °F
Feels Like 50.5 °F
N
4.5
Wind Variable Wind from East
Gusts 9.2 mph

Today
High -- | Low -- °F
--% Chance of Precip.
Yesterday
High -- | Low -- °F
Precip. -- in
Pressure 30.17 in
Visibility 10.0 miles
Clouds Clear
Dew Point 25 °F
Humidity 37%
Rainfall 0.00 in
Snow Depth Not available.
7:08 AM 5:50 PM
Waxing Crescent, 13% visible
METAR KHFJ 111835Z AUTO 05006KT 10SM CLR 07/M05 A3017 RMK AO2
Pressure 30.17 in
Visibility 10.0 miles
Clouds Clear
Dew Point 25 °F
Humidity 37%
Rainfall 0.00 in
Snow Depth Not available.
7:08 AM 5:50 PM
Waxing Crescent, 13% visible
METAR KHFJ 111835Z AUTO 05006KT 10SM CLR 07/M05 A3017 RMK AO2

10-Day Weather Forecast

Almanac

Astronomy

Feb. 11, 2016 Rise Set
Actual Time
Civil Twilight
Nautical Twilight
Astronomical Twilight
Moon
Length of Visible Light
Length of Day
Tomorrow will be .
, % of the Moon is Illuminated

Today's Extremes

State Highs State Lows

Community

WunderPhotos

Upload Photos

1,892,125 photos uploaded!

WunderBlog® & News

Nearby

Air Quality

  Air Quality AQ Index Pollutant
Not available.

Snow Depth

Station Depth Elevation

Earthquake Activity

City Distance Mag. Time & Date
Minimum magnitude displayed is 2.5.

Coastal Water Temperatures

Place Temperature

Stations

Nearby Weather Stations

Station Location Temp. Windchill Dew Point Humidity Wind Precip. Elev Updated Type
                   

Watches & Warnings

There are currently no watches in effect.